createdAt,value
2023-02-28T00:00:13.166Z,13.52
2023-02-28T00:01:13.362Z,7.76
2023-02-28T00:02:13.487Z,11.92
2023-02-28T00:03:18.963Z,4.72
2023-02-28T00:04:12.877Z,8.28
2023-02-28T00:05:13.832Z,4.76
2023-02-28T00:06:13.806Z,6.68
2023-02-28T00:07:13.878Z,5.80
2023-02-28T00:08:13.857Z,8.36
2023-02-28T00:09:14.027Z,7.36
2023-02-28T00:10:13.038Z,7.20
2023-02-28T00:11:13.057Z,8.40
2023-02-28T00:12:13.352Z,5.68
2023-02-28T00:13:13.486Z,8.52
2023-02-28T00:14:13.469Z,6.28
2023-02-28T00:15:13.492Z,10.84
2023-02-28T00:16:13.447Z,7.52
2023-02-28T00:17:13.540Z,11.48
2023-02-28T00:18:13.732Z,9.88
2023-02-28T00:19:13.941Z,17.24
2023-02-28T00:20:12.970Z,11.48
2023-02-28T00:21:13.184Z,8.20
2023-02-28T00:22:13.557Z,8.92
2023-02-28T00:23:13.558Z,5.64
2023-02-28T00:24:14.072Z,5.60
2023-02-28T00:25:13.518Z,6.92
2023-02-28T00:26:13.440Z,14.84
2023-02-28T00:27:13.468Z,9.56
2023-02-28T00:28:16.222Z,8.32
2023-02-28T00:29:13.372Z,4.80
2023-02-28T00:30:13.375Z,7.44
2023-02-28T00:31:13.624Z,6.00
2023-02-28T00:32:13.534Z,8.32
2023-02-28T00:33:13.519Z,7.20
2023-02-28T00:34:14.762Z,10.40
2023-02-28T00:35:13.790Z,7.08
2023-02-28T00:36:13.719Z,10.80
2023-02-28T00:37:13.686Z,7.44
2023-02-28T00:38:13.759Z,6.08
2023-02-28T00:39:13.784Z,7.44
2023-02-28T00:40:13.985Z,7.56
2023-02-28T00:41:12.951Z,10.60
2023-02-28T00:42:12.862Z,4.12
2023-02-28T00:43:13.877Z,14.04
2023-02-28T00:44:13.825Z,3.60
2023-02-28T00:45:13.849Z,12.28
2023-02-28T00:46:13.831Z,4.04
2023-02-28T00:47:13.759Z,3.44
2023-02-28T00:48:13.108Z,4.40
2023-02-28T00:49:13.250Z,4.72
2023-02-28T00:50:13.614Z,8.52
2023-02-28T00:51:13.733Z,7.00
2023-02-28T00:52:13.644Z,7.60
2023-02-28T00:53:13.552Z,5.56
2023-02-28T00:54:13.566Z,5.36
2023-02-28T00:55:14.052Z,7.32
2023-02-28T00:56:13.143Z,4.80
2023-02-28T00:57:13.223Z,3.60
2023-02-28T00:58:13.337Z,3.32
2023-02-28T00:59:13.271Z,4.48
2023-02-28T01:00:13.202Z,6.00
2023-02-28T01:01:13.216Z,7.88
2023-02-28T01:02:13.741Z,5.48
2023-02-28T01:03:13.660Z,4.44
2023-02-28T01:04:13.698Z,5.04
2023-02-28T01:05:13.886Z,4.76
2023-02-28T01:06:12.868Z,2.92
2023-02-28T01:07:14.102Z,2.08
2023-02-28T01:08:13.038Z,7.56
2023-02-28T01:09:13.167Z,4.92
2023-02-28T01:10:13.183Z,2.96
2023-02-28T01:11:13.231Z,5.60
2023-02-28T01:12:13.401Z,4.76
2023-02-28T01:13:13.775Z,5.84
2023-02-28T01:14:13.873Z,3.80
2023-02-28T01:15:13.985Z,6.84
2023-02-28T01:16:13.058Z,2.80
2023-02-28T01:17:13.053Z,1.84
2023-02-28T01:18:13.282Z,0.00
2023-02-28T01:19:14.549Z,3.72
2023-02-28T01:20:13.768Z,3.08
2023-02-28T01:21:13.727Z,5.28
2023-02-28T01:22:13.751Z,7.24
2023-02-28T01:23:13.810Z,5.56
2023-02-28T01:24:13.719Z,2.52
2023-02-28T01:25:14.010Z,4.24
2023-02-28T01:26:13.124Z,3.52
2023-02-28T01:27:13.146Z,2.24
2023-02-28T01:28:13.447Z,2.52
2023-02-28T01:29:13.800Z,7.00
2023-02-28T01:30:13.941Z,6.96
2023-02-28T01:31:13.021Z,3.24
2023-02-28T01:32:13.056Z,2.16
2023-02-28T01:33:13.150Z,3.32
2023-02-28T01:34:13.104Z,2.60
2023-02-28T01:35:13.033Z,0.96
2023-02-28T01:36:12.904Z,1.28
2023-02-28T01:37:13.218Z,3.04
2023-02-28T01:38:22.056Z,1.44
2023-02-28T01:39:13.806Z,2.36
2023-02-28T01:40:14.053Z,4.84
2023-02-28T01:41:13.024Z,5.28
2023-02-28T01:42:13.156Z,3.40
2023-02-28T01:43:13.517Z,4.29
2023-02-28T01:44:13.355Z,3.96
2023-02-28T01:45:13.522Z,3.24
2023-02-28T01:46:13.496Z,3.12
2023-02-28T01:47:13.823Z,3.08
2023-02-28T01:48:13.742Z,2.56
2023-02-28T01:49:14.061Z,3.84
2023-02-28T01:50:13.149Z,5.36
2023-02-28T01:51:13.265Z,3.64
2023-02-28T01:52:13.114Z,1.72
2023-02-28T01:53:13.095Z,4.76
2023-02-28T01:54:13.038Z,5.64
2023-02-28T01:55:13.266Z,4.04
2023-02-28T01:56:13.204Z,2.80
2023-02-28T01:57:13.258Z,3.48
2023-02-28T01:58:13.199Z,4.40
2023-02-28T01:59:13.240Z,0.96
2023-02-28T02:00:13.206Z,0.72
2023-02-28T02:01:13.238Z,1.68
2023-02-28T02:02:13.309Z,0.84
2023-02-28T02:03:14.240Z,3.28
2023-02-28T02:04:13.866Z,1.40
2023-02-28T02:05:14.068Z,2.20
2023-02-28T02:06:13.005Z,1.88
2023-02-28T02:07:13.277Z,2.12
2023-02-28T02:08:13.354Z,3.16
2023-02-28T02:09:13.452Z,2.32
2023-02-28T02:10:13.632Z,2.96
2023-02-28T02:11:14.539Z,4.84
2023-02-28T02:12:13.809Z,2.92
2023-02-28T02:13:13.736Z,4.56
2023-02-28T02:14:14.043Z,4.04
2023-02-28T02:15:12.955Z,4.04
2023-02-28T02:16:13.365Z,4.04
2023-02-28T02:17:13.483Z,5.16
2023-02-28T02:18:13.902Z,5.84
2023-02-28T02:19:12.968Z,4.04
2023-02-28T02:20:13.318Z,5.00
2023-02-28T02:21:13.239Z,3.44
2023-02-28T02:22:21.168Z,4.68
2023-02-28T02:23:13.076Z,5.28
2023-02-28T02:24:14.215Z,6.28
2023-02-28T02:25:13.145Z,6.92
2023-02-28T02:26:13.152Z,6.08
2023-02-28T02:27:13.418Z,7.52
2023-02-28T02:28:13.431Z,4.92
2023-02-28T02:29:13.679Z,6.16
2023-02-28T02:30:13.659Z,4.56
2023-02-28T02:31:13.825Z,7.72
2023-02-28T02:32:13.922Z,6.56
2023-02-28T02:33:12.810Z,3.76
2023-02-28T02:34:13.790Z,5.52
2023-02-28T02:35:13.960Z,5.60
2023-02-28T02:36:17.984Z,4.76
2023-02-28T02:37:13.080Z,6.04
2023-02-28T02:38:13.496Z,5.52
2023-02-28T02:39:13.609Z,4.88
2023-02-28T02:40:13.483Z,3.84
2023-02-28T02:41:13.492Z,2.64
2023-02-28T02:42:13.458Z,5.68
2023-02-28T02:43:13.482Z,4.76
2023-02-28T02:44:13.448Z,4.92
2023-02-28T02:45:13.445Z,5.16
2023-02-28T02:46:13.548Z,3.28
2023-02-28T02:47:13.630Z,1.20
2023-02-28T02:48:14.180Z,0.60
2023-02-28T02:49:13.286Z,0.72
2023-02-28T02:50:13.234Z,0.00
2023-02-28T02:51:13.184Z,0.00
2023-02-28T02:52:13.689Z,0.12
2023-02-28T02:53:15.412Z,0.43
2023-02-28T02:54:13.690Z,0.00
2023-02-28T02:55:13.625Z,0.00
2023-02-28T02:56:14.097Z,0.00
2023-02-28T02:57:13.214Z,0.00
2023-02-28T02:58:13.198Z,0.00
2023-02-28T02:59:13.535Z,0.00
2023-02-28T03:00:13.456Z,0.08
2023-02-28T03:01:13.710Z,0.00
2023-02-28T03:02:13.985Z,0.00
2023-02-28T03:03:12.999Z,0.00
2023-02-28T03:04:13.278Z,0.36
2023-02-28T03:05:13.200Z,0.00
2023-02-28T03:06:13.367Z,0.04
2023-02-28T03:07:13.393Z,0.60
2023-02-28T03:08:13.521Z,0.24
2023-02-28T03:09:13.590Z,0.36
2023-02-28T03:10:13.519Z,0.41
2023-02-28T03:11:13.840Z,0.00
2023-02-28T03:12:14.086Z,0.00
2023-02-28T03:13:13.151Z,0.00
2023-02-28T03:14:13.216Z,0.24
2023-02-28T03:15:13.396Z,0.12
2023-02-28T03:16:13.616Z,0.08
2023-02-28T03:17:18.569Z,0.00
2023-02-28T03:18:13.854Z,0.77
2023-02-28T03:19:14.684Z,0.72
2023-02-28T03:20:13.638Z,0.60
2023-02-28T03:21:14.016Z,3.00
2023-02-28T03:22:12.988Z,3.64
2023-02-28T03:23:13.027Z,6.16
2023-02-28T03:24:13.027Z,5.12
2023-02-28T03:25:13.307Z,4.48
2023-02-28T03:26:18.290Z,5.28
2023-02-28T03:27:13.344Z,5.44
2023-02-28T03:28:13.312Z,6.12
2023-02-28T03:29:13.603Z,3.92
2023-02-28T03:30:13.482Z,8.20
2023-02-28T03:31:13.603Z,8.12
2023-02-28T03:32:14.073Z,5.12
2023-02-28T03:33:13.142Z,3.64
2023-02-28T03:34:13.301Z,4.24
2023-02-28T03:35:13.338Z,3.36
2023-02-28T03:36:13.646Z,4.04
2023-02-28T03:37:13.746Z,1.36
2023-02-28T03:38:13.700Z,1.32
2023-02-28T03:39:14.203Z,0.28
2023-02-28T03:40:13.537Z,0.00
2023-02-28T03:41:13.462Z,0.56
2023-02-28T03:42:13.560Z,0.64
2023-02-28T03:43:14.792Z,1.72
2023-02-28T03:44:13.703Z,0.36
2023-02-28T03:45:13.605Z,0.28
2023-02-28T03:46:13.579Z,0.16
2023-02-28T03:47:13.502Z,1.32
2023-02-28T03:48:13.664Z,2.12
2023-02-28T03:49:13.837Z,1.52
2023-02-28T03:50:14.064Z,1.44
2023-02-28T03:51:13.227Z,1.88
2023-02-28T03:52:13.122Z,4.28
2023-02-28T03:53:13.182Z,4.12
2023-02-28T03:54:13.119Z,2.16
2023-02-28T03:55:13.081Z,1.72
2023-02-28T03:56:13.192Z,5.16
2023-02-28T03:57:13.571Z,5.32
2023-02-28T03:58:13.934Z,4.32
2023-02-28T03:59:13.011Z,4.04
2023-02-28T04:00:13.395Z,4.32
2023-02-28T04:01:13.207Z,4.16
2023-02-28T04:02:13.310Z,3.44
2023-02-28T04:03:13.235Z,4.96
2023-02-28T04:04:13.286Z,6.80
2023-02-28T04:05:13.541Z,4.88
2023-02-28T04:06:13.786Z,3.88
2023-02-28T04:07:13.679Z,3.96
2023-02-28T04:08:13.724Z,3.40
2023-02-28T04:09:13.648Z,4.04
2023-02-28T04:10:13.561Z,2.56
2023-02-28T04:11:13.631Z,3.08
2023-02-28T04:13:13.387Z,2.52
2023-02-28T04:14:13.322Z,1.92
2023-02-28T04:15:13.289Z,2.96
2023-02-28T04:16:18.769Z,2.36
2023-02-28T04:17:14.010Z,1.52
2023-02-28T04:18:15.117Z,2.12
2023-02-28T04:19:13.141Z,3.52
2023-02-28T04:20:13.268Z,3.16
2023-02-28T04:21:13.225Z,3.12
2023-02-28T04:22:13.219Z,4.08
2023-02-28T04:23:13.604Z,2.40
2023-02-28T04:24:13.570Z,3.00
2023-02-28T04:25:13.505Z,2.12
2023-02-28T04:26:13.468Z,2.44
2023-02-28T04:27:13.803Z,2.00
2023-02-28T04:28:14.095Z,1.68
2023-02-28T04:29:13.041Z,2.52
2023-02-28T04:30:13.002Z,1.20
2023-02-28T04:31:12.994Z,0.80
2023-02-28T04:32:13.362Z,0.84
2023-02-28T04:33:13.733Z,2.08
2023-02-28T04:34:13.593Z,1.08
2023-02-28T04:35:13.495Z,0.48
2023-02-28T04:36:13.427Z,0.08
2023-02-28T04:37:14.315Z,0.52
2023-02-28T04:38:13.475Z,0.20
2023-02-28T04:39:13.488Z,0.08
2023-02-28T04:40:13.388Z,1.44
2023-02-28T04:41:13.312Z,0.48
2023-02-28T04:42:13.190Z,1.36
2023-02-28T04:43:13.318Z,0.36
2023-02-28T04:44:13.219Z,0.68
2023-02-28T04:45:13.076Z,0.48
2023-02-28T04:46:13.195Z,1.04
2023-02-28T04:47:13.506Z,1.48
2023-02-28T04:48:13.449Z,2.12
2023-02-28T04:49:13.795Z,1.92
2023-02-28T04:50:13.743Z,2.92
2023-02-28T04:51:13.604Z,2.60
2023-02-28T04:52:13.491Z,2.76
2023-02-28T04:53:13.467Z,1.48
2023-02-28T04:54:13.757Z,3.76
2023-02-28T04:55:13.768Z,3.68
2023-02-28T04:56:13.684Z,6.00
2023-02-28T04:57:14.422Z,4.12
2023-02-28T04:58:13.685Z,5.44
2023-02-28T04:59:13.633Z,3.24
2023-02-28T05:00:13.534Z,5.16
2023-02-28T05:01:14.559Z,4.76
2023-02-28T05:02:13.674Z,3.16
2023-02-28T05:03:13.739Z,1.32
2023-02-28T05:04:14.021Z,4.52
2023-02-28T05:05:13.020Z,1.08
2023-02-28T05:06:12.924Z,1.64
2023-02-28T05:07:13.099Z,2.32
2023-02-28T05:08:13.311Z,1.60
2023-02-28T05:09:13.191Z,0.00
2023-02-28T05:10:13.092Z,0.84
2023-02-28T05:11:13.118Z,0.60
2023-02-28T05:12:13.168Z,0.80
2023-02-28T05:13:13.416Z,1.56
2023-02-28T05:14:13.349Z,2.12
2023-02-28T05:15:13.270Z,1.84
2023-02-28T05:16:13.355Z,0.20
2023-02-28T05:17:18.326Z,0.56
2023-02-28T05:18:13.432Z,0.44
2023-02-28T05:19:13.541Z,0.24
2023-02-28T05:20:15.491Z,0.08
2023-02-28T05:21:13.390Z,0.00
2023-02-28T05:22:13.367Z,0.00
2023-02-28T05:23:13.471Z,0.16
2023-02-28T05:24:13.452Z,1.16
2023-02-28T05:25:13.788Z,0.76
2023-02-28T05:26:14.139Z,0.00
2023-02-28T05:27:13.413Z,0.60
2023-02-28T05:28:13.894Z,1.24
2023-02-28T05:29:13.559Z,1.92
2023-02-28T05:30:14.417Z,0.86
2023-02-28T05:31:14.328Z,1.52
2023-02-28T05:32:13.484Z,1.64
2023-02-28T05:33:13.610Z,2.08
2023-02-28T05:34:13.574Z,2.44
2023-02-28T05:35:13.555Z,2.08
2023-02-28T05:36:13.371Z,1.48
2023-02-28T05:37:13.386Z,0.92
2023-02-28T05:38:13.287Z,0.08
2023-02-28T05:39:13.221Z,0.00
2023-02-28T05:40:13.418Z,1.24
2023-02-28T05:41:13.359Z,0.08
2023-02-28T05:42:13.285Z,1.16
2023-02-28T05:43:13.261Z,1.60
2023-02-28T05:44:13.440Z,2.16
2023-02-28T05:45:15.688Z,3.44
2023-02-28T05:46:13.845Z,1.96
2023-02-28T05:47:13.321Z,2.20
2023-02-28T05:48:13.342Z,1.88
2023-02-28T05:49:13.307Z,2.24
2023-02-28T05:50:13.514Z,0.48
2023-02-28T05:51:13.643Z,1.28
2023-02-28T05:52:13.650Z,2.16
2023-02-28T05:53:13.723Z,4.44
2023-02-28T05:56:13.070Z,0.05
2023-02-28T05:58:15.068Z,0.24
2023-02-28T05:59:13.215Z,0.12
2023-02-28T06:00:13.181Z,0.00
2023-02-28T06:01:13.391Z,0.28
2023-02-28T06:02:13.566Z,0.88
2023-02-28T06:03:13.642Z,0.12
2023-02-28T06:04:29.274Z,1.16
2023-02-28T06:05:12.903Z,1.60
2023-02-28T06:06:13.465Z,0.43
2023-02-28T06:07:13.858Z,1.10
2023-02-28T06:08:13.729Z,1.04
2023-02-28T06:09:18.926Z,3.36
2023-02-28T06:10:12.850Z,2.64
2023-02-28T06:11:13.689Z,4.92
2023-02-28T06:12:14.126Z,2.36
2023-02-28T06:13:13.207Z,5.00
2023-02-28T06:14:13.362Z,4.80
2023-02-28T06:15:13.410Z,7.84
2023-02-28T06:16:13.327Z,7.08
2023-02-28T06:17:13.453Z,4.36
2023-02-28T06:18:13.593Z,3.64
2023-02-28T06:19:13.971Z,2.80
2023-02-28T06:20:12.909Z,4.16
2023-02-28T06:21:12.909Z,2.40
2023-02-28T06:22:13.007Z,0.68
2023-02-28T06:23:13.110Z,0.64
2023-02-28T06:24:13.368Z,1.12
2023-02-28T06:25:13.257Z,1.60
2023-02-28T06:26:13.262Z,2.64
2023-02-28T06:27:13.595Z,4.00
2023-02-28T06:28:13.692Z,4.08
2023-02-28T06:29:13.754Z,0.36
2023-02-28T06:30:13.797Z,0.40
2023-02-28T06:31:13.846Z,0.24
2023-02-28T06:32:13.888Z,3.12
2023-02-28T06:33:12.990Z,1.60
2023-02-28T06:34:13.231Z,0.76
2023-02-28T06:35:13.404Z,1.40
2023-02-28T06:36:13.671Z,0.68
2023-02-28T06:37:13.832Z,3.04
2023-02-28T06:38:13.786Z,1.64
2023-02-28T06:39:14.037Z,1.08
2023-02-28T06:40:12.873Z,0.88
2023-02-28T06:41:14.114Z,1.16
2023-02-28T06:42:13.437Z,0.92
2023-02-28T06:43:13.522Z,0.72
2023-02-28T06:44:13.637Z,1.40
2023-02-28T06:45:13.543Z,0.00
2023-02-28T06:46:13.896Z,1.60
2023-02-28T06:47:13.004Z,4.24
2023-02-28T06:48:12.992Z,4.40
2023-02-28T06:49:12.860Z,1.16
2023-02-28T06:50:13.095Z,1.04
2023-02-28T06:51:13.117Z,2.16
2023-02-28T06:52:13.232Z,0.96
2023-02-28T06:53:33.377Z,0.96
2023-02-28T06:54:13.266Z,3.36
2023-02-28T06:55:13.366Z,3.20
2023-02-28T06:56:13.439Z,2.40
2023-02-28T06:57:13.644Z,3.48
2023-02-28T06:58:13.788Z,2.68
2023-02-28T06:59:13.703Z,0.96
2023-02-28T07:00:13.727Z,0.08
2023-02-28T07:01:13.726Z,0.00
2023-02-28T07:02:13.806Z,0.12
2023-02-28T07:03:13.722Z,0.08
2023-02-28T07:04:13.603Z,0.08
2023-02-28T07:05:13.650Z,0.00
2023-02-28T07:06:13.705Z,0.08
2023-02-28T07:07:13.745Z,0.00
2023-02-28T07:08:14.262Z,0.00
2023-02-28T07:09:13.343Z,0.00
2023-02-28T07:10:13.257Z,0.44
2023-02-28T07:11:13.437Z,1.28
2023-02-28T07:12:13.493Z,0.08
2023-02-28T07:13:13.325Z,0.00
2023-02-28T07:14:13.719Z,0.00
2023-02-28T07:15:14.057Z,0.00
2023-02-28T07:16:13.542Z,0.00
2023-02-28T07:17:13.514Z,0.00
2023-02-28T07:18:13.520Z,0.00
2023-02-28T07:19:13.436Z,0.00
2023-02-28T07:20:13.431Z,0.00
2023-02-28T07:21:13.331Z,0.00
2023-02-28T07:22:15.555Z,0.00
2023-02-28T07:23:12.897Z,0.00
2023-02-28T07:24:12.834Z,0.00
2023-02-28T07:25:13.816Z,0.00
2023-02-28T07:26:13.734Z,0.00
2023-02-28T07:27:13.926Z,0.00
2023-02-28T07:28:12.918Z,0.84
2023-02-28T07:29:12.996Z,0.00
2023-02-28T07:30:13.284Z,0.04
2023-02-28T07:31:13.322Z,0.00
2023-02-28T07:32:13.439Z,1.40
2023-02-28T07:33:13.502Z,0.56
2023-02-28T07:34:13.483Z,1.20
2023-02-28T07:35:13.516Z,0.58
2023-02-28T07:36:13.417Z,0.96
2023-02-28T07:37:13.456Z,1.00
2023-02-28T07:38:13.540Z,0.16
2023-02-28T07:39:13.536Z,0.92
2023-02-28T07:40:13.583Z,1.96
2023-02-28T07:41:13.470Z,1.24
2023-02-28T07:42:13.432Z,2.20
2023-02-28T07:43:13.498Z,0.64
2023-02-28T07:44:13.655Z,0.04
2023-02-28T07:45:13.632Z,0.68
2023-02-28T07:46:13.745Z,2.08
2023-02-28T07:47:13.692Z,6.36
2023-02-28T07:48:13.622Z,2.72
2023-02-28T07:49:13.476Z,0.32
2023-02-28T07:50:13.403Z,0.16
2023-02-28T07:51:13.720Z,1.20
2023-02-28T07:52:13.757Z,0.16
2023-02-28T07:53:13.774Z,0.00
2023-02-28T07:54:14.069Z,0.00
2023-02-28T07:55:13.168Z,0.48
2023-02-28T07:56:13.101Z,1.40
2023-02-28T07:57:13.014Z,0.00
2023-02-28T07:58:12.957Z,1.76
2023-02-28T07:59:13.055Z,0.32
2023-02-28T08:00:13.679Z,0.04
2023-02-28T08:01:13.735Z,0.24
2023-02-28T08:02:13.736Z,0.40
2023-02-28T08:03:13.781Z,1.68
2023-02-28T08:04:14.023Z,2.64
2023-02-28T08:05:13.316Z,2.96
2023-02-28T08:06:13.269Z,1.04
2023-02-28T08:07:13.474Z,0.84
2023-02-28T08:08:13.676Z,1.88
2023-02-28T08:09:13.591Z,0.04
2023-02-28T08:10:13.683Z,0.00
2023-02-28T08:11:13.852Z,0.28
2023-02-28T08:12:13.859Z,0.72
2023-02-28T08:13:14.258Z,0.56
2023-02-28T08:14:13.653Z,1.68
2023-02-28T08:15:13.528Z,0.80
2023-02-28T08:16:13.447Z,0.16
2023-02-28T08:17:13.400Z,0.00
2023-02-28T08:18:13.362Z,0.00
2023-02-28T08:19:13.350Z,0.00
2023-02-28T08:20:13.233Z,0.00
2023-02-28T08:21:13.377Z,0.00
2023-02-28T08:22:13.710Z,0.00
2023-02-28T08:23:13.971Z,0.00
2023-02-28T08:24:12.940Z,0.00
2023-02-28T08:25:12.921Z,0.00
2023-02-28T08:26:13.003Z,0.00
2023-02-28T08:27:12.922Z,0.00
2023-02-28T08:28:13.060Z,0.00
2023-02-28T08:29:12.998Z,0.00
2023-02-28T08:30:38.069Z,0.00
2023-02-28T08:31:13.202Z,2.56
2023-02-28T08:33:17.268Z,0.00
2023-02-28T08:34:13.727Z,0.00
2023-02-28T08:35:13.754Z,0.00
2023-02-28T08:36:36.589Z,0.24
2023-02-28T08:37:13.735Z,0.06
2023-02-28T08:38:13.849Z,0.00
2023-02-28T08:39:42.910Z,0.00
2023-02-28T08:41:13.655Z,0.18
2023-02-28T08:42:56.616Z,0.48
2023-02-28T08:43:13.675Z,2.16
2023-02-28T08:44:18.938Z,1.52
2023-02-28T08:45:13.024Z,3.84
2023-02-28T08:46:13.110Z,4.12
2023-02-28T08:47:18.309Z,0.80
2023-02-28T08:48:13.248Z,0.40
2023-02-28T08:49:13.172Z,0.44
2023-02-28T08:50:13.184Z,3.68
2023-02-28T08:51:13.317Z,1.72
2023-02-28T08:52:13.287Z,0.16
2023-02-28T08:53:13.462Z,0.52
2023-02-28T08:54:13.633Z,0.96
2023-02-28T08:55:13.555Z,1.20
2023-02-28T08:56:13.615Z,0.16
2023-02-28T08:57:13.766Z,0.48
2023-02-28T08:58:13.860Z,1.04
2023-02-28T08:59:13.743Z,2.68
2023-02-28T09:00:13.613Z,4.44
2023-02-28T09:01:13.898Z,0.00
2023-02-28T09:02:13.180Z,0.00
2023-02-28T09:03:13.397Z,0.12
2023-02-28T09:04:14.598Z,1.08
2023-02-28T09:05:13.687Z,1.16
2023-02-28T09:06:13.699Z,4.84
2023-02-28T09:07:13.951Z,9.56
2023-02-28T09:08:13.228Z,2.12
2023-02-28T09:09:13.252Z,14.64
2023-02-28T09:10:13.369Z,1.80
2023-02-28T09:11:13.356Z,2.56
2023-02-28T09:12:13.283Z,2.36
2023-02-28T09:13:13.196Z,4.12
2023-02-28T09:14:13.126Z,3.56
2023-02-28T09:15:13.138Z,8.71
2023-02-28T09:16:13.114Z,20.30
2023-02-28T09:17:13.667Z,13.40
2023-02-28T09:18:13.674Z,19.32
2023-02-28T09:19:13.730Z,13.24
2023-02-28T09:20:14.107Z,10.40
2023-02-28T09:21:13.646Z,22.68
2023-02-28T09:22:13.666Z,7.28
2023-02-28T09:23:13.721Z,5.96
2023-02-28T09:24:14.076Z,5.16
2023-02-28T09:25:13.695Z,4.80
2023-02-28T09:26:13.698Z,8.48
2023-02-28T09:27:13.652Z,20.76
2023-02-28T09:28:13.730Z,18.92
2023-02-28T09:29:14.069Z,3.72
2023-02-28T09:30:13.167Z,6.88
2023-02-28T09:31:13.549Z,14.04
2023-02-28T09:32:13.643Z,22.84
2023-02-28T09:33:13.635Z,20.84
2023-02-28T09:34:13.777Z,8.96
2023-02-28T09:35:13.722Z,26.28
2023-02-28T09:36:14.154Z,17.16
2023-02-28T09:37:13.038Z,28.52
2023-02-28T09:38:13.099Z,15.80
2023-02-28T09:39:13.381Z,15.36
2023-02-28T09:40:13.665Z,16.44
2023-02-28T09:41:13.604Z,23.12
2023-02-28T09:42:13.691Z,11.80
2023-02-28T09:43:14.169Z,3.32
2023-02-28T09:44:13.171Z,7.00
2023-02-28T09:45:13.209Z,12.12
2023-02-28T09:46:13.211Z,9.16
2023-02-28T09:47:13.283Z,7.56
2023-02-28T09:48:26.980Z,1.68
2023-02-28T09:49:13.159Z,3.12
2023-02-28T09:50:13.109Z,6.68
2023-02-28T09:51:13.053Z,4.76
2023-02-28T09:52:13.017Z,9.20
2023-02-28T09:53:12.951Z,3.72
2023-02-28T09:54:12.907Z,6.76
2023-02-28T09:55:12.891Z,5.40
2023-02-28T09:56:12.966Z,8.08
2023-02-28T09:57:13.053Z,3.40
2023-02-28T09:58:12.972Z,3.44
2023-02-28T09:59:13.076Z,7.64
2023-02-28T10:00:13.121Z,8.08
2023-02-28T10:01:13.087Z,4.64
2023-02-28T10:02:13.124Z,5.00
2023-02-28T10:03:13.018Z,3.16
2023-02-28T10:04:13.581Z,2.60
2023-02-28T10:05:13.550Z,2.72
2023-02-28T10:06:13.444Z,7.68
2023-02-28T10:07:13.400Z,16.76
2023-02-28T10:08:13.321Z,13.16
2023-02-28T10:09:18.571Z,9.28
2023-02-28T10:10:13.584Z,8.24
2023-02-28T10:11:14.064Z,10.76
2023-02-28T10:12:13.119Z,21.28
2023-02-28T10:13:13.167Z,10.56
2023-02-28T10:14:13.505Z,9.20
2023-02-28T10:15:13.765Z,6.04
2023-02-28T10:16:13.939Z,8.12
2023-02-28T10:17:18.293Z,10.20
2023-02-28T10:18:13.874Z,4.08
2023-02-28T10:19:12.940Z,6.76
2023-02-28T10:20:12.912Z,24.28
2023-02-28T10:21:12.805Z,16.00
2023-02-28T10:22:13.708Z,22.56
2023-02-28T10:23:13.624Z,5.76
2023-02-28T10:24:13.785Z,2.96
2023-02-28T10:25:13.819Z,23.68
2023-02-28T10:26:13.808Z,15.64
2023-02-28T10:27:14.125Z,8.00
2023-02-28T10:28:12.982Z,10.44
2023-02-28T10:29:12.970Z,20.40
2023-02-28T10:30:12.868Z,10.20
2023-02-28T10:31:13.909Z,10.64
2023-02-28T10:32:13.027Z,18.24
2023-02-28T10:33:13.154Z,7.96
2023-02-28T10:34:13.104Z,19.24
2023-02-28T10:35:13.214Z,30.08
2023-02-28T10:36:13.463Z,10.16
2023-02-28T10:37:13.453Z,7.00
2023-02-28T10:38:13.569Z,7.80
2023-02-28T10:39:13.497Z,4.72
2023-02-28T10:40:13.344Z,1.48
2023-02-28T10:41:13.412Z,1.84
2023-02-28T10:42:13.432Z,11.88
2023-02-28T10:43:13.710Z,10.56
2023-02-28T10:44:13.782Z,25.08
2023-02-28T10:45:13.923Z,13.00
2023-02-28T10:46:13.235Z,26.44
2023-02-28T10:48:13.671Z,18.48
2023-02-28T10:49:18.873Z,20.64
2023-02-28T10:50:13.001Z,31.20
2023-02-28T10:51:13.237Z,35.28
2023-02-28T10:52:13.513Z,22.20
2023-02-28T10:53:13.616Z,11.44
2023-02-28T10:54:13.933Z,18.80
2023-02-28T10:55:13.180Z,18.28
2023-02-28T10:56:13.504Z,10.96
2023-02-28T10:57:13.415Z,4.68
2023-02-28T10:58:13.629Z,11.60
2023-02-28T10:59:13.564Z,5.80
2023-02-28T11:00:13.748Z,11.00
2023-02-28T11:01:13.629Z,21.92
2023-02-28T11:02:13.546Z,19.76
2023-02-28T11:03:13.924Z,19.68
2023-02-28T11:04:13.187Z,12.72
2023-02-28T11:05:13.375Z,9.64
2023-02-28T11:06:13.578Z,4.64
2023-02-28T11:07:13.453Z,9.76
2023-02-28T11:08:13.520Z,14.04
2023-02-28T11:09:13.865Z,21.96
2023-02-28T11:10:13.862Z,26.24
2023-02-28T11:11:12.834Z,16.44
2023-02-28T11:12:13.909Z,14.48
2023-02-28T11:14:20.646Z,26.16
2023-02-28T11:16:14.200Z,42.96
2023-02-28T11:17:13.273Z,36.44
2023-02-28T11:18:13.220Z,45.68
2023-02-28T11:19:13.633Z,32.40
2023-02-28T11:20:13.880Z,39.04
2023-02-28T11:21:13.306Z,27.52
2023-02-28T11:22:13.821Z,34.04
2023-02-28T11:23:14.116Z,18.96
2023-02-28T11:24:13.353Z,17.52
2023-02-28T11:25:13.483Z,21.64
2023-02-28T11:26:13.746Z,33.60
2023-02-28T11:27:13.986Z,15.16
2023-02-28T11:28:13.327Z,20.24
2023-02-28T11:29:13.391Z,18.48
2023-02-28T11:30:13.643Z,30.80
2023-02-28T11:31:14.121Z,27.40
2023-02-28T11:32:13.643Z,12.88
2023-02-28T11:33:14.097Z,11.96
2023-02-28T11:34:13.115Z,19.68
2023-02-28T11:35:13.475Z,16.60
2023-02-28T11:36:13.468Z,17.12
2023-02-28T11:37:13.461Z,9.96
2023-02-28T11:38:13.387Z,14.84
2023-02-28T11:39:13.439Z,20.16
2023-02-28T11:40:13.587Z,36.48
2023-02-28T11:41:13.877Z,34.96
2023-02-28T11:42:13.818Z,17.04
2023-02-28T11:43:13.992Z,35.12
2023-02-28T11:44:13.057Z,31.80
2023-02-28T11:45:13.016Z,52.52
2023-02-28T11:46:18.387Z,22.12
2023-02-28T11:47:13.574Z,8.48
2023-02-28T11:48:13.705Z,32.56
2023-02-28T11:49:13.735Z,35.04
2023-02-28T11:50:13.785Z,25.44
2023-02-28T11:51:13.993Z,20.60
2023-02-28T11:52:13.146Z,13.56
2023-02-28T11:53:13.001Z,33.48
2023-02-28T11:54:13.191Z,22.40
2023-02-28T11:55:13.215Z,20.88
2023-02-28T11:56:13.197Z,22.24
2023-02-28T11:57:13.380Z,22.00
2023-02-28T11:58:13.668Z,39.80
2023-02-28T11:59:13.901Z,30.16
2023-02-28T12:00:12.877Z,22.44
2023-02-28T12:01:14.007Z,37.48
2023-02-28T12:02:13.229Z,38.84
2023-02-28T12:03:13.234Z,24.20
2023-02-28T12:04:13.222Z,62.84
2023-02-28T12:05:13.339Z,33.72
2023-02-28T12:06:13.460Z,22.56
2023-02-28T12:07:13.559Z,14.28
2023-02-28T12:08:13.787Z,10.22
2023-02-28T12:09:13.797Z,9.28
2023-02-28T12:10:14.085Z,5.86
2023-02-28T12:11:13.334Z,9.20
2023-02-28T12:12:13.249Z,4.88
2023-02-28T12:13:13.202Z,11.88
2023-02-28T12:14:13.188Z,13.27
2023-02-28T12:15:13.147Z,17.93
2023-02-28T12:16:13.144Z,38.78
2023-02-28T12:17:13.411Z,34.84
2023-02-28T12:18:13.289Z,48.60
2023-02-28T12:19:13.251Z,14.92
2023-02-28T12:20:13.267Z,29.16
2023-02-28T12:21:13.694Z,14.40
2023-02-28T12:22:13.702Z,35.16
2023-02-28T12:23:13.636Z,31.08
2023-02-28T12:24:13.833Z,48.44
2023-02-28T12:25:13.912Z,30.20
2023-02-28T12:26:12.870Z,15.96
2023-02-28T12:27:16.813Z,25.40
2023-02-28T12:28:13.784Z,19.32
2023-02-28T12:29:13.992Z,21.36
2023-02-28T12:30:12.899Z,26.56
2023-02-28T12:31:13.248Z,27.04
2023-02-28T12:32:13.313Z,21.80
2023-02-28T12:33:13.442Z,11.12
2023-02-28T12:34:13.924Z,30.68
2023-02-28T12:35:13.106Z,38.44
2023-02-28T12:36:13.072Z,41.36
2023-02-28T12:37:13.396Z,49.72
2023-02-28T12:38:13.342Z,49.56
2023-02-28T12:39:13.203Z,23.84
2023-02-28T12:40:13.478Z,38.96
2023-02-28T12:41:13.551Z,65.92
2023-02-28T12:42:13.496Z,50.92
2023-02-28T12:43:13.371Z,71.00
2023-02-28T12:44:13.454Z,33.68
2023-02-28T12:45:13.693Z,26.20
2023-02-28T12:46:13.877Z,33.88
2023-02-28T12:47:12.953Z,43.16
2023-02-28T12:48:13.077Z,44.72
2023-02-28T12:49:13.009Z,39.32
2023-02-28T12:50:13.131Z,64.16
2023-02-28T12:51:13.100Z,48.36
2023-02-28T12:52:13.129Z,71.08
2023-02-28T12:53:13.003Z,34.32
2023-02-28T12:54:12.924Z,34.00
2023-02-28T12:55:13.104Z,33.72
2023-02-28T12:56:13.501Z,29.48
2023-02-28T12:57:13.444Z,38.48
2023-02-28T12:58:13.393Z,15.52
2023-02-28T12:59:13.718Z,46.68
2023-02-28T13:00:13.949Z,11.16
2023-02-28T13:01:12.949Z,20.80
2023-02-28T13:02:13.369Z,26.76
2023-02-28T13:03:13.333Z,56.88
2023-02-28T13:04:18.480Z,48.64
2023-02-28T13:06:13.575Z,47.84
2023-02-28T13:07:13.552Z,33.24
2023-02-28T13:08:13.416Z,41.96
2023-02-28T13:09:13.506Z,51.00
2023-02-28T13:10:13.441Z,24.48
2023-02-28T13:11:21.577Z,14.24
2023-02-28T13:12:13.896Z,20.28
2023-02-28T13:13:13.684Z,18.00
2023-02-28T13:14:14.005Z,38.28
2023-02-28T13:15:13.073Z,18.28
2023-02-28T13:16:13.310Z,41.68
2023-02-28T13:17:13.296Z,18.64
2023-02-28T13:18:13.446Z,45.16
2023-02-28T13:19:13.354Z,9.80
2023-02-28T13:20:13.229Z,55.28
2023-02-28T13:21:13.318Z,72.36